sensor_id;sensor_type;location;lat;lon;timestamp;P1;durP1;ratioP1;P2;durP2;ratioP2
14080;SDS011;7116;52.152;5.392;2024-02-21T00:02:21;12.00;;;4.23;;
14080;SDS011;7116;52.152;5.392;2024-02-21T00:04:47;10.43;;;5.40;;
14080;SDS011;7116;52.152;5.392;2024-02-21T00:07:13;14.15;;;4.13;;
14080;SDS011;7116;52.152;5.392;2024-02-21T00:09:38;16.87;;;5.07;;
14080;SDS011;7116;52.152;5.392;2024-02-21T00:12:03;7.90;;;4.03;;
14080;SDS011;7116;52.152;5.392;2024-02-21T00:14:30;10.82;;;5.10;;
14080;SDS011;7116;52.152;5.392;2024-02-21T00:16:55;19.77;;;4.53;;
14080;SDS011;7116;52.152;5.392;2024-02-21T00:19:20;14.90;;;5.20;;
14080;SDS011;7116;52.152;5.392;2024-02-21T00:21:46;12.20;;;4.40;;
14080;SDS011;7116;52.152;5.392;2024-02-21T00:24:11;10.50;;;4.47;;
14080;SDS011;7116;52.152;5.392;2024-02-21T00:26:36;15.97;;;4.60;;
14080;SDS011;7116;52.152;5.392;2024-02-21T00:29:01;9.97;;;4.07;;
14080;SDS011;7116;52.152;5.392;2024-02-21T00:31:27;10.43;;;3.67;;
14080;SDS011;7116;52.152;5.392;2024-02-21T00:33:52;8.90;;;3.87;;
14080;SDS011;7116;52.152;5.392;2024-02-21T00:36:18;11.97;;;4.10;;
14080;SDS011;7116;52.152;5.392;2024-02-21T00:38:43;14.63;;;4.18;;
14080;SDS011;7116;52.152;5.392;2024-02-21T00:41:09;15.23;;;4.43;;
14080;SDS011;7116;52.152;5.392;2024-02-21T00:43:34;13.30;;;4.50;;
14080;SDS011;7116;52.152;5.392;2024-02-21T00:46:00;16.50;;;4.20;;
14080;SDS011;7116;52.152;5.392;2024-02-21T00:48:25;13.50;;;4.57;;
14080;SDS011;7116;52.152;5.392;2024-02-21T00:50:50;14.57;;;3.97;;
14080;SDS011;7116;52.152;5.392;2024-02-21T00:53:15;13.47;;;5.47;;
14080;SDS011;7116;52.152;5.392;2024-02-21T00:55:41;12.73;;;4.13;;
14080;SDS011;7116;52.152;5.392;2024-02-21T00:58:08;13.77;;;4.85;;
14080;SDS011;7116;52.152;5.392;2024-02-21T01:00:33;11.03;;;4.07;;
14080;SDS011;7116;52.152;5.392;2024-02-21T01:02:58;13.40;;;4.27;;
14080;SDS011;7116;52.152;5.392;2024-02-21T01:05:23;12.93;;;3.83;;
14080;SDS011;7116;52.152;5.392;2024-02-21T01:07:49;10.53;;;4.57;;
14080;SDS011;7116;52.152;5.392;2024-02-21T01:10:14;13.80;;;4.67;;
14080;SDS011;7116;52.152;5.392;2024-02-21T01:12:40;14.50;;;4.70;;
14080;SDS011;7116;52.152;5.392;2024-02-21T01:15:05;11.88;;;4.50;;
14080;SDS011;7116;52.152;5.392;2024-02-21T01:17:31;16.93;;;4.50;;
14080;SDS011;7116;52.152;5.392;2024-02-21T01:19:56;13.87;;;5.13;;
14080;SDS011;7116;52.152;5.392;2024-02-21T01:22:21;13.33;;;4.53;;
14080;SDS011;7116;52.152;5.392;2024-02-21T01:24:47;10.50;;;4.80;;
14080;SDS011;7116;52.152;5.392;2024-02-21T01:27:12;11.43;;;4.70;;
14080;SDS011;7116;52.152;5.392;2024-02-21T01:29:37;13.25;;;4.20;;
14080;SDS011;7116;52.152;5.392;2024-02-21T01:32:02;18.65;;;6.40;;
14080;SDS011;7116;52.152;5.392;2024-02-21T01:34:28;16.27;;;6.45;;
14080;SDS011;7116;52.152;5.392;2024-02-21T01:36:53;14.70;;;5.50;;
14080;SDS011;7116;52.152;5.392;2024-02-21T01:39:18;12.53;;;5.10;;
14080;SDS011;7116;52.152;5.392;2024-02-21T01:41:43;13.53;;;4.17;;
14080;SDS011;7116;52.152;5.392;2024-02-21T01:44:09;11.53;;;4.83;;
14080;SDS011;7116;52.152;5.392;2024-02-21T01:46:34;16.43;;;4.57;;
14080;SDS011;7116;52.152;5.392;2024-02-21T01:49:00;9.07;;;4.40;;
14080;SDS011;7116;52.152;5.392;2024-02-21T01:51:29;17.02;;;4.95;;
14080;SDS011;7116;52.152;5.392;2024-02-21T01:53:55;15.25;;;4.88;;
14080;SDS011;7116;52.152;5.392;2024-02-21T01:56:22;18.70;;;5.05;;
14080;SDS011;7116;52.152;5.392;2024-02-21T01:58:47;15.87;;;4.27;;
14080;SDS011;7116;52.152;5.392;2024-02-21T02:01:14;16.00;;;4.93;;
14080;SDS011;7116;52.152;5.392;2024-02-21T02:03:39;12.57;;;4.57;;
14080;SDS011;7116;52.152;5.392;2024-02-21T02:06:05;18.67;;;4.78;;
14080;SDS011;7116;52.152;5.392;2024-02-21T02:08:31;11.30;;;4.03;;
14080;SDS011;7116;52.152;5.392;2024-02-21T02:11:06;12.30;;;5.03;;
14080;SDS011;7116;52.152;5.392;2024-02-21T02:13:31;12.82;;;4.32;;
14080;SDS011;7116;52.152;5.392;2024-02-21T02:15:59;12.63;;;4.10;;
14080;SDS011;7116;52.152;5.392;2024-02-21T02:18:24;15.80;;;5.27;;
14080;SDS011;7116;52.152;5.392;2024-02-21T02:20:50;12.40;;;4.93;;
14080;SDS011;7116;52.152;5.392;2024-02-21T02:25:45;13.00;;;5.57;;
14080;SDS011;7116;52.152;5.392;2024-02-21T02:28:14;11.03;;;4.17;;
14080;SDS011;7116;52.152;5.392;2024-02-21T02:30:39;13.63;;;5.10;;
14080;SDS011;7116;52.152;5.392;2024-02-21T02:33:04;14.90;;;5.20;;
14080;SDS011;7116;52.152;5.392;2024-02-21T02:35:30;11.85;;;4.68;;
14080;SDS011;7116;52.152;5.392;2024-02-21T02:37:55;12.27;;;4.60;;
14080;SDS011;7116;52.152;5.392;2024-02-21T02:40:20;16.73;;;4.93;;
14080;SDS011;7116;52.152;5.392;2024-02-21T02:42:48;11.85;;;5.00;;
14080;SDS011;7116;52.152;5.392;2024-02-21T02:45:14;14.63;;;4.68;;
14080;SDS011;7116;52.152;5.392;2024-02-21T02:47:39;16.40;;;4.93;;
14080;SDS011;7116;52.152;5.392;2024-02-21T02:50:05;11.77;;;4.87;;
14080;SDS011;7116;52.152;5.392;2024-02-21T02:52:31;16.95;;;4.80;;
14080;SDS011;7116;52.152;5.392;2024-02-21T02:54:56;12.53;;;5.17;;
14080;SDS011;7116;52.152;5.392;2024-02-21T02:57:23;12.80;;;5.10;;
14080;SDS011;7116;52.152;5.392;2024-02-21T02:59:51;12.23;;;5.60;;
14080;SDS011;7116;52.152;5.392;2024-02-21T03:02:16;13.20;;;5.00;;
14080;SDS011;7116;52.152;5.392;2024-02-21T03:04:44;15.88;;;6.57;;
14080;SDS011;7116;52.152;5.392;2024-02-21T03:07:13;16.13;;;5.83;;
14080;SDS011;7116;52.152;5.392;2024-02-21T03:09:39;14.15;;;5.75;;
14080;SDS011;7116;52.152;5.392;2024-02-21T03:12:05;14.90;;;5.25;;
14080;SDS011;7116;52.152;5.392;2024-02-21T03:14:30;15.83;;;5.63;;
14080;SDS011;7116;52.152;5.392;2024-02-21T03:16:56;16.65;;;5.28;;
14080;SDS011;7116;52.152;5.392;2024-02-21T03:19:21;16.50;;;5.23;;
14080;SDS011;7116;52.152;5.392;2024-02-21T03:21:47;10.93;;;5.13;;
14080;SDS011;7116;52.152;5.392;2024-02-21T03:24:12;11.30;;;5.70;;
14080;SDS011;7116;52.152;5.392;2024-02-21T03:26:38;12.50;;;5.23;;
14080;SDS011;7116;52.152;5.392;2024-02-21T03:29:03;13.70;;;4.87;;
14080;SDS011;7116;52.152;5.392;2024-02-21T03:31:28;14.87;;;6.50;;
14080;SDS011;7116;52.152;5.392;2024-02-21T03:33:54;13.40;;;6.07;;
14080;SDS011;7116;52.152;5.392;2024-02-21T03:36:21;17.25;;;5.65;;
14080;SDS011;7116;52.152;5.392;2024-02-21T03:38:49;24.33;;;6.47;;
14080;SDS011;7116;52.152;5.392;2024-02-21T03:41:22;10.98;;;5.38;;
14080;SDS011;7116;52.152;5.392;2024-02-21T03:43:47;15.20;;;6.10;;
14080;SDS011;7116;52.152;5.392;2024-02-21T03:46:12;9.17;;;5.20;;
14080;SDS011;7116;52.152;5.392;2024-02-21T03:48:38;15.40;;;5.10;;
14080;SDS011;7116;52.152;5.392;2024-02-21T03:51:03;18.27;;;6.33;;
14080;SDS011;7116;52.152;5.392;2024-02-21T03:53:28;13.20;;;6.22;;
14080;SDS011;7116;52.152;5.392;2024-02-21T03:55:54;16.88;;;6.20;;
14080;SDS011;7116;52.152;5.392;2024-02-21T03:58:19;10.87;;;5.43;;
14080;SDS011;7116;52.152;5.392;2024-02-21T04:00:50;11.75;;;5.50;;
14080;SDS011;7116;52.152;5.392;2024-02-21T04:03:16;14.13;;;5.88;;
14080;SDS011;7116;52.152;5.392;2024-02-21T04:05:44;13.87;;;5.47;;
14080;SDS011;7116;52.152;5.392;2024-02-21T04:08:09;11.80;;;5.40;;
14080;SDS011;7116;52.152;5.392;2024-02-21T04:10:35;11.70;;;6.10;;
14080;SDS011;7116;52.152;5.392;2024-02-21T04:13:00;11.43;;;5.13;;
14080;SDS011;7116;52.152;5.392;2024-02-21T04:15:25;11.23;;;5.27;;
14080;SDS011;7116;52.152;5.392;2024-02-21T04:17:50;13.70;;;5.53;;
14080;SDS011;7116;52.152;5.392;2024-02-21T04:20:16;19.05;;;6.00;;
14080;SDS011;7116;52.152;5.392;2024-02-21T04:22:44;11.02;;;5.30;;
14080;SDS011;7116;52.152;5.392;2024-02-21T04:25:10;9.73;;;5.07;;
14080;SDS011;7116;52.152;5.392;2024-02-21T04:27:36;9.40;;;4.57;;
14080;SDS011;7116;52.152;5.392;2024-02-21T04:30:01;11.90;;;5.85;;
14080;SDS011;7116;52.152;5.392;2024-02-21T04:32:26;8.87;;;6.07;;
14080;SDS011;7116;52.152;5.392;2024-02-21T04:34:52;12.20;;;6.10;;
14080;SDS011;7116;52.152;5.392;2024-02-21T04:37:17;8.40;;;4.80;;
14080;SDS011;7116;52.152;5.392;2024-02-21T04:39:43;11.70;;;5.70;;
14080;SDS011;7116;52.152;5.392;2024-02-21T04:42:08;14.50;;;5.38;;
14080;SDS011;7116;52.152;5.392;2024-02-21T04:44:33;10.50;;;6.20;;
14080;SDS011;7116;52.152;5.392;2024-02-21T04:46:58;15.20;;;5.68;;
14080;SDS011;7116;52.152;5.392;2024-02-21T04:49:23;14.13;;;6.88;;
14080;SDS011;7116;52.152;5.392;2024-02-21T04:51:49;9.27;;;5.37;;
14080;SDS011;7116;52.152;5.392;2024-02-21T04:54:16;11.00;;;5.53;;
14080;SDS011;7116;52.152;5.392;2024-02-21T04:56:42;14.50;;;5.80;;
14080;SDS011;7116;52.152;5.392;2024-02-21T04:59:08;14.82;;;6.10;;
14080;SDS011;7116;52.152;5.392;2024-02-21T05:01:33;11.47;;;6.00;;
14080;SDS011;7116;52.152;5.392;2024-02-21T05:04:01;15.10;;;5.80;;
14080;SDS011;7116;52.152;5.392;2024-02-21T05:06:28;10.93;;;5.60;;
14080;SDS011;7116;52.152;5.392;2024-02-21T05:08:54;13.13;;;6.20;;
14080;SDS011;7116;52.152;5.392;2024-02-21T05:11:20;13.43;;;6.65;;
14080;SDS011;7116;52.152;5.392;2024-02-21T05:13:45;13.30;;;5.97;;
14080;SDS011;7116;52.152;5.392;2024-02-21T05:16:11;9.97;;;5.90;;
14080;SDS011;7116;52.152;5.392;2024-02-21T05:18:37;11.98;;;6.30;;
14080;SDS011;7116;52.152;5.392;2024-02-21T05:21:02;11.67;;;5.53;;
14080;SDS011;7116;52.152;5.392;2024-02-21T05:23:27;10.20;;;6.47;;
14080;SDS011;7116;52.152;5.392;2024-02-21T05:25:52;9.17;;;5.50;;
14080;SDS011;7116;52.152;5.392;2024-02-21T05:28:17;15.10;;;6.00;;
14080;SDS011;7116;52.152;5.392;2024-02-21T05:30:44;16.27;;;6.77;;
14080;SDS011;7116;52.152;5.392;2024-02-21T05:33:09;9.75;;;6.03;;
14080;SDS011;7116;52.152;5.392;2024-02-21T05:35:35;12.03;;;6.00;;
14080;SDS011;7116;52.152;5.392;2024-02-21T05:38:01;14.27;;;6.43;;
14080;SDS011;7116;52.152;5.392;2024-02-21T05:40:26;10.27;;;6.13;;
14080;SDS011;7116;52.152;5.392;2024-02-21T05:42:51;11.53;;;6.60;;
14080;SDS011;7116;52.152;5.392;2024-02-21T05:45:18;10.80;;;7.03;;
14080;SDS011;7116;52.152;5.392;2024-02-21T05:47:43;15.98;;;6.70;;
14080;SDS011;7116;52.152;5.392;2024-02-21T05:50:11;16.50;;;6.35;;
14080;SDS011;7116;52.152;5.392;2024-02-21T05:52:36;18.97;;;6.83;;
14080;SDS011;7116;52.152;5.392;2024-02-21T05:55:01;13.90;;;6.93;;
14080;SDS011;7116;52.152;5.392;2024-02-21T05:57:27;13.03;;;6.50;;
14080;SDS011;7116;52.152;5.392;2024-02-21T05:59:53;12.43;;;7.23;;
14080;SDS011;7116;52.152;5.392;2024-02-21T06:02:18;13.23;;;6.70;;
14080;SDS011;7116;52.152;5.392;2024-02-21T06:04:44;13.73;;;8.18;;
14080;SDS011;7116;52.152;5.392;2024-02-21T06:07:11;11.30;;;6.22;;
14080;SDS011;7116;52.152;5.392;2024-02-21T06:09:36;12.20;;;7.63;;
14080;SDS011;7116;52.152;5.392;2024-02-21T06:12:01;12.98;;;6.28;;
14080;SDS011;7116;52.152;5.392;2024-02-21T06:14:27;12.88;;;8.48;;
14080;SDS011;7116;52.152;5.392;2024-02-21T06:16:52;11.03;;;6.67;;
14080;SDS011;7116;52.152;5.392;2024-02-21T06:19:20;9.97;;;7.03;;
14080;SDS011;7116;52.152;5.392;2024-02-21T06:21:45;10.63;;;6.70;;
14080;SDS011;7116;52.152;5.392;2024-02-21T06:24:10;13.77;;;6.97;;
14080;SDS011;7116;52.152;5.392;2024-02-21T06:26:37;10.97;;;6.80;;
14080;SDS011;7116;52.152;5.392;2024-02-21T06:29:02;14.83;;;7.47;;
14080;SDS011;7116;52.152;5.392;2024-02-21T06:31:28;14.17;;;7.33;;
14080;SDS011;7116;52.152;5.392;2024-02-21T06:33:56;12.48;;;6.85;;
14080;SDS011;7116;52.152;5.392;2024-02-21T06:36:22;17.40;;;7.70;;
14080;SDS011;7116;52.152;5.392;2024-02-21T06:38:49;11.80;;;7.15;;
14080;SDS011;7116;52.152;5.392;2024-02-21T06:41:18;15.37;;;7.60;;
14080;SDS011;7116;52.152;5.392;2024-02-21T06:43:44;15.32;;;8.73;;
14080;SDS011;7116;52.152;5.392;2024-02-21T06:46:10;14.55;;;8.32;;
14080;SDS011;7116;52.152;5.392;2024-02-21T06:48:36;12.87;;;8.00;;
14080;SDS011;7116;52.152;5.392;2024-02-21T06:51:01;17.60;;;8.40;;
14080;SDS011;7116;52.152;5.392;2024-02-21T06:53:26;15.17;;;8.87;;
14080;SDS011;7116;52.152;5.392;2024-02-21T06:55:51;15.37;;;9.57;;
14080;SDS011;7116;52.152;5.392;2024-02-21T06:58:32;19.50;;;9.20;;
14080;SDS011;7116;52.152;5.392;2024-02-21T07:00:57;18.35;;;9.70;;
14080;SDS011;7116;52.152;5.392;2024-02-21T07:03:25;19.48;;;9.98;;
14080;SDS011;7116;52.152;5.392;2024-02-21T07:05:50;19.20;;;10.75;;
14080;SDS011;7116;52.152;5.392;2024-02-21T07:08:17;21.05;;;10.77;;
14080;SDS011;7116;52.152;5.392;2024-02-21T07:10:43;25.03;;;11.50;;
14080;SDS011;7116;52.152;5.392;2024-02-21T07:13:08;22.07;;;11.00;;
14080;SDS011;7116;52.152;5.392;2024-02-21T07:15:33;27.17;;;11.40;;
14080;SDS011;7116;52.152;5.392;2024-02-21T07:17:58;19.83;;;11.40;;
14080;SDS011;7116;52.152;5.392;2024-02-21T07:20:24;20.27;;;10.90;;
14080;SDS011;7116;52.152;5.392;2024-02-21T07:22:49;17.50;;;10.23;;
14080;SDS011;7116;52.152;5.392;2024-02-21T07:25:14;20.47;;;10.57;;
14080;SDS011;7116;52.152;5.392;2024-02-21T07:27:39;20.25;;;10.05;;
14080;SDS011;7116;52.152;5.392;2024-02-21T07:30:06;18.00;;;10.43;;
14080;SDS011;7116;52.152;5.392;2024-02-21T07:32:32;19.42;;;11.50;;
14080;SDS011;7116;52.152;5.392;2024-02-21T07:34:57;17.20;;;10.67;;
14080;SDS011;7116;52.152;5.392;2024-02-21T07:37:22;19.93;;;9.80;;
14080;SDS011;7116;52.152;5.392;2024-02-21T07:39:47;20.43;;;10.70;;
14080;SDS011;7116;52.152;5.392;2024-02-21T07:42:15;21.13;;;11.10;;
14080;SDS011;7116;52.152;5.392;2024-02-21T07:45:00;20.05;;;11.90;;
14080;SDS011;7116;52.152;5.392;2024-02-21T07:50:21;19.55;;;9.18;;
14080;SDS011;7116;52.152;5.392;2024-02-21T07:58:57;20.60;;;8.88;;
14080;SDS011;7116;52.152;5.392;2024-02-21T08:01:40;17.83;;;9.02;;
14080;SDS011;7116;52.152;5.392;2024-02-21T08:10:25;23.50;;;8.38;;
14080;SDS011;7116;52.152;5.392;2024-02-21T08:12:52;18.00;;;9.23;;
14080;SDS011;7116;52.152;5.392;2024-02-21T08:15:26;16.08;;;8.82;;
14080;SDS011;7116;52.152;5.392;2024-02-21T08:17:54;16.27;;;8.48;;
14080;SDS011;7116;52.152;5.392;2024-02-21T08:20:23;13.90;;;7.85;;
14080;SDS011;7116;52.152;5.392;2024-02-21T08:22:49;19.37;;;9.00;;
14080;SDS011;7116;52.152;5.392;2024-02-21T08:25:14;20.60;;;9.13;;
14080;SDS011;7116;52.152;5.392;2024-02-21T08:27:39;15.73;;;8.75;;
14080;SDS011;7116;52.152;5.392;2024-02-21T08:30:04;18.15;;;10.98;;
14080;SDS011;7116;52.152;5.392;2024-02-21T08:32:32;22.77;;;10.50;;
14080;SDS011;7116;52.152;5.392;2024-02-21T08:34:57;14.47;;;9.60;;
14080;SDS011;7116;52.152;5.392;2024-02-21T08:37:22;20.63;;;10.23;;
14080;SDS011;7116;52.152;5.392;2024-02-21T08:39:48;18.80;;;11.03;;
14080;SDS011;7116;52.152;5.392;2024-02-21T08:42:13;21.35;;;9.88;;
14080;SDS011;7116;52.152;5.392;2024-02-21T08:44:39;16.02;;;9.98;;
14080;SDS011;7116;52.152;5.392;2024-02-21T08:47:05;22.15;;;9.10;;
14080;SDS011;7116;52.152;5.392;2024-02-21T08:49:31;18.58;;;10.63;;
14080;SDS011;7116;52.152;5.392;2024-02-21T08:51:57;18.85;;;9.93;;
14080;SDS011;7116;52.152;5.392;2024-02-21T08:54:23;17.97;;;11.13;;
14080;SDS011;7116;52.152;5.392;2024-02-21T08:56:48;13.38;;;9.85;;
14080;SDS011;7116;52.152;5.392;2024-02-21T08:59:14;15.73;;;10.20;;
14080;SDS011;7116;52.152;5.392;2024-02-21T09:01:40;18.50;;;10.23;;
14080;SDS011;7116;52.152;5.392;2024-02-21T09:04:05;19.67;;;9.97;;
14080;SDS011;7116;52.152;5.392;2024-02-21T09:06:38;17.17;;;9.77;;
14080;SDS011;7116;52.152;5.392;2024-02-21T09:11:57;13.50;;;9.40;;
14080;SDS011;7116;52.152;5.392;2024-02-21T09:14:33;14.43;;;10.18;;
14080;SDS011;7116;52.152;5.392;2024-02-21T09:17:27;14.93;;;9.18;;
14080;SDS011;7116;52.152;5.392;2024-02-21T09:19:56;16.13;;;10.02;;
14080;SDS011;7116;52.152;5.392;2024-02-21T09:22:24;19.90;;;9.63;;
14080;SDS011;7116;52.152;5.392;2024-02-21T09:25:00;14.98;;;9.30;;
14080;SDS011;7116;52.152;5.392;2024-02-21T09:27:25;14.67;;;8.03;;
14080;SDS011;7116;52.152;5.392;2024-02-21T09:29:50;16.77;;;8.97;;
14080;SDS011;7116;52.152;5.392;2024-02-21T09:32:15;13.50;;;7.83;;
14080;SDS011;7116;52.152;5.392;2024-02-21T09:34:41;16.58;;;9.40;;
14080;SDS011;7116;52.152;5.392;2024-02-21T09:37:08;17.70;;;9.75;;
14080;SDS011;7116;52.152;5.392;2024-02-21T09:39:36;15.35;;;8.63;;
14080;SDS011;7116;52.152;5.392;2024-02-21T09:42:11;11.60;;;7.07;;
14080;SDS011;7116;52.152;5.392;2024-02-21T09:44:39;13.73;;;8.97;;
14080;SDS011;7116;52.152;5.392;2024-02-21T09:47:07;18.70;;;8.05;;
14080;SDS011;7116;52.152;5.392;2024-02-21T09:49:35;14.37;;;7.27;;
14080;SDS011;7116;52.152;5.392;2024-02-21T09:52:06;15.50;;;7.55;;
14080;SDS011;7116;52.152;5.392;2024-02-21T09:54:35;13.52;;;8.52;;
14080;SDS011;7116;52.152;5.392;2024-02-21T09:57:01;14.57;;;7.13;;
14080;SDS011;7116;52.152;5.392;2024-02-21T09:59:30;14.65;;;8.35;;
14080;SDS011;7116;52.152;5.392;2024-02-21T10:01:56;13.10;;;7.23;;
14080;SDS011;7116;52.152;5.392;2024-02-21T10:04:27;13.73;;;7.57;;
14080;SDS011;7116;52.152;5.392;2024-02-21T10:06:53;10.15;;;5.18;;
14080;SDS011;7116;52.152;5.392;2024-02-21T10:09:28;12.05;;;6.95;;
14080;SDS011;7116;52.152;5.392;2024-02-21T10:12:11;13.43;;;6.97;;
14080;SDS011;7116;52.152;5.392;2024-02-21T10:15:01;12.40;;;6.85;;
14080;SDS011;7116;52.152;5.392;2024-02-21T10:17:29;12.20;;;7.03;;
14080;SDS011;7116;52.152;5.392;2024-02-21T10:26:08;16.85;;;6.80;;
14080;SDS011;7116;52.152;5.392;2024-02-21T10:28:38;11.85;;;6.47;;
14080;SDS011;7116;52.152;5.392;2024-02-21T10:31:21;10.00;;;5.95;;
14080;SDS011;7116;52.152;5.392;2024-02-21T10:33:53;19.05;;;5.88;;
14080;SDS011;7116;52.152;5.392;2024-02-21T10:36:18;12.40;;;7.03;;
14080;SDS011;7116;52.152;5.392;2024-02-21T10:38:44;12.80;;;6.10;;
14080;SDS011;7116;52.152;5.392;2024-02-21T10:41:09;11.23;;;6.27;;
14080;SDS011;7116;52.152;5.392;2024-02-21T10:43:40;12.55;;;6.00;;
14080;SDS011;7116;52.152;5.392;2024-02-21T10:46:08;10.75;;;6.00;;
14080;SDS011;7116;52.152;5.392;2024-02-21T10:48:38;8.85;;;5.55;;
14080;SDS011;7116;52.152;5.392;2024-02-21T10:51:19;9.77;;;5.27;;
14080;SDS011;7116;52.152;5.392;2024-02-21T10:53:47;10.73;;;5.47;;
14080;SDS011;7116;52.152;5.392;2024-02-21T10:58:57;8.38;;;4.90;;
14080;SDS011;7116;52.152;5.392;2024-02-21T11:01:22;7.55;;;4.90;;
14080;SDS011;7116;52.152;5.392;2024-02-21T11:03:48;7.60;;;5.40;;
14080;SDS011;7116;52.152;5.392;2024-02-21T11:06:16;8.85;;;5.22;;
14080;SDS011;7116;52.152;5.392;2024-02-21T11:08:43;15.55;;;14.23;;
14080;SDS011;7116;52.152;5.392;2024-02-21T11:11:11;6.43;;;4.90;;
14080;SDS011;7116;52.152;5.392;2024-02-21T11:13:41;8.88;;;5.22;;
14080;SDS011;7116;52.152;5.392;2024-02-21T11:19:32;9.45;;;6.07;;
14080;SDS011;7116;52.152;5.392;2024-02-21T11:24:43;11.27;;;6.57;;
14080;SDS011;7116;52.152;5.392;2024-02-21T11:33:32;10.73;;;5.90;;
14080;SDS011;7116;52.152;5.392;2024-02-21T11:39:33;12.85;;;6.57;;
14080;SDS011;7116;52.152;5.392;2024-02-21T11:45:14;11.15;;;5.97;;
14080;SDS011;7116;52.152;5.392;2024-02-21T11:48:14;9.13;;;5.93;;
14080;SDS011;7116;52.152;5.392;2024-02-21T11:51:05;7.88;;;4.93;;
14080;SDS011;7116;52.152;5.392;2024-02-21T11:56:48;9.52;;;6.55;;
14080;SDS011;7116;52.152;5.392;2024-02-21T11:59:34;10.57;;;7.10;;
14080;SDS011;7116;52.152;5.392;2024-02-21T12:05:05;9.95;;;5.70;;
14080;SDS011;7116;52.152;5.392;2024-02-21T12:07:30;7.93;;;5.70;;
14080;SDS011;7116;52.152;5.392;2024-02-21T12:10:01;11.50;;;6.15;;
14080;SDS011;7116;52.152;5.392;2024-02-21T12:12:26;8.75;;;6.22;;
14080;SDS011;7116;52.152;5.392;2024-02-21T12:15:03;11.87;;;7.40;;
14080;SDS011;7116;52.152;5.392;2024-02-21T12:20:35;13.15;;;6.95;;
14080;SDS011;7116;52.152;5.392;2024-02-21T12:23:01;7.53;;;5.00;;
14080;SDS011;7116;52.152;5.392;2024-02-21T12:25:26;8.57;;;5.70;;
14080;SDS011;7116;52.152;5.392;2024-02-21T12:27:53;13.25;;;5.85;;
14080;SDS011;7116;52.152;5.392;2024-02-21T12:30:18;10.07;;;5.67;;
14080;SDS011;7116;52.152;5.392;2024-02-21T12:32:44;8.90;;;5.63;;
14080;SDS011;7116;52.152;5.392;2024-02-21T12:35:13;10.13;;;5.72;;
14080;SDS011;7116;52.152;5.392;2024-02-21T12:37:38;9.50;;;6.30;;
14080;SDS011;7116;52.152;5.392;2024-02-21T12:40:05;11.00;;;5.87;;
14080;SDS011;7116;52.152;5.392;2024-02-21T12:42:31;9.18;;;6.68;;
14080;SDS011;7116;52.152;5.392;2024-02-21T12:44:56;12.10;;;7.73;;
14080;SDS011;7116;52.152;5.392;2024-02-21T12:47:22;14.60;;;6.37;;
14080;SDS011;7116;52.152;5.392;2024-02-21T12:49:49;13.13;;;6.95;;
14080;SDS011;7116;52.152;5.392;2024-02-21T12:52:14;9.67;;;5.37;;
14080;SDS011;7116;52.152;5.392;2024-02-21T12:54:40;10.93;;;6.30;;
14080;SDS011;7116;52.152;5.392;2024-02-21T12:57:05;8.07;;;5.93;;
14080;SDS011;7116;52.152;5.392;2024-02-21T12:59:30;10.00;;;7.00;;
14080;SDS011;7116;52.152;5.392;2024-02-21T13:01:58;10.50;;;5.87;;
14080;SDS011;7116;52.152;5.392;2024-02-21T13:04:41;10.32;;;6.07;;
14080;SDS011;7116;52.152;5.392;2024-02-21T13:07:09;9.73;;;5.53;;
14080;SDS011;7116;52.152;5.392;2024-02-21T13:09:35;10.25;;;5.72;;
14080;SDS011;7116;52.152;5.392;2024-02-21T13:12:00;8.60;;;5.47;;
14080;SDS011;7116;52.152;5.392;2024-02-21T13:14:27;8.52;;;7.10;;
14080;SDS011;7116;52.152;5.392;2024-02-21T13:16:58;7.32;;;4.57;;
14080;SDS011;7116;52.152;5.392;2024-02-21T13:19:25;10.32;;;6.50;;
14080;SDS011;7116;52.152;5.392;2024-02-21T13:21:55;9.13;;;5.10;;
14080;SDS011;7116;52.152;5.392;2024-02-21T13:24:21;10.07;;;5.90;;
14080;SDS011;7116;52.152;5.392;2024-02-21T13:26:56;8.48;;;5.55;;
14080;SDS011;7116;52.152;5.392;2024-02-21T13:29:25;7.80;;;5.47;;
14080;SDS011;7116;52.152;5.392;2024-02-21T13:32:17;9.43;;;5.65;;
14080;SDS011;7116;52.152;5.392;2024-02-21T13:35:03;6.73;;;4.47;;
14080;SDS011;7116;52.152;5.392;2024-02-21T13:37:33;10.30;;;6.05;;
14080;SDS011;7116;52.152;5.392;2024-02-21T13:39:59;10.18;;;6.25;;
14080;SDS011;7116;52.152;5.392;2024-02-21T13:45:45;10.60;;;4.72;;
14080;SDS011;7116;52.152;5.392;2024-02-21T13:48:27;10.60;;;4.80;;
14080;SDS011;7116;52.152;5.392;2024-02-21T14:03:33;10.23;;;4.23;;
14080;SDS011;7116;52.152;5.392;2024-02-21T14:06:18;11.15;;;5.70;;
14080;SDS011;7116;52.152;5.392;2024-02-21T14:08:44;10.47;;;5.37;;
14080;SDS011;7116;52.152;5.392;2024-02-21T14:11:09;6.97;;;4.45;;
14080;SDS011;7116;52.152;5.392;2024-02-21T14:13:34;9.10;;;4.77;;
14080;SDS011;7116;52.152;5.392;2024-02-21T14:16:00;13.73;;;4.70;;
14080;SDS011;7116;52.152;5.392;2024-02-21T14:18:46;9.68;;;5.00;;
14080;SDS011;7116;52.152;5.392;2024-02-21T14:21:11;10.35;;;4.50;;
14080;SDS011;7116;52.152;5.392;2024-02-21T14:23:59;12.32;;;5.25;;
14080;SDS011;7116;52.152;5.392;2024-02-21T14:26:44;9.38;;;5.07;;
14080;SDS011;7116;52.152;5.392;2024-02-21T14:29:09;13.20;;;5.20;;
14080;SDS011;7116;52.152;5.392;2024-02-21T14:31:52;10.77;;;4.77;;
14080;SDS011;7116;52.152;5.392;2024-02-21T14:34:21;11.88;;;4.90;;
14080;SDS011;7116;52.152;5.392;2024-02-21T14:36:46;12.63;;;5.93;;
14080;SDS011;7116;52.152;5.392;2024-02-21T14:39:14;8.20;;;5.30;;
14080;SDS011;7116;52.152;5.392;2024-02-21T14:44:58;14.68;;;5.47;;
14080;SDS011;7116;52.152;5.392;2024-02-21T14:47:32;10.87;;;5.00;;
14080;SDS011;7116;52.152;5.392;2024-02-21T14:50:17;11.77;;;4.82;;
14080;SDS011;7116;52.152;5.392;2024-02-21T14:53:01;9.13;;;4.93;;
14080;SDS011;7116;52.152;5.392;2024-02-21T14:55:29;11.40;;;5.40;;
14080;SDS011;7116;52.152;5.392;2024-02-21T14:57:54;10.83;;;5.20;;
14080;SDS011;7116;52.152;5.392;2024-02-21T15:00:19;12.27;;;4.93;;
14080;SDS011;7116;52.152;5.392;2024-02-21T15:02:46;8.15;;;4.40;;
14080;SDS011;7116;52.152;5.392;2024-02-21T15:05:14;6.80;;;3.90;;
14080;SDS011;7116;52.152;5.392;2024-02-21T15:07:39;13.30;;;5.77;;
14080;SDS011;7116;52.152;5.392;2024-02-21T15:10:07;9.48;;;5.07;;
14080;SDS011;7116;52.152;5.392;2024-02-21T15:12:35;7.90;;;4.25;;
14080;SDS011;7116;52.152;5.392;2024-02-21T15:15:03;10.45;;;5.00;;
14080;SDS011;7116;52.152;5.392;2024-02-21T15:17:29;9.83;;;5.67;;
14080;SDS011;7116;52.152;5.392;2024-02-21T15:19:54;8.43;;;5.63;;
14080;SDS011;7116;52.152;5.392;2024-02-21T15:22:22;9.05;;;4.82;;
14080;SDS011;7116;52.152;5.392;2024-02-21T15:24:50;8.65;;;5.78;;
14080;SDS011;7116;52.152;5.392;2024-02-21T15:27:16;7.60;;;4.60;;
14080;SDS011;7116;52.152;5.392;2024-02-21T15:30:02;8.18;;;4.57;;
14080;SDS011;7116;52.152;5.392;2024-02-21T15:32:44;10.13;;;5.70;;
14080;SDS011;7116;52.152;5.392;2024-02-21T15:35:30;9.75;;;5.60;;
14080;SDS011;7116;52.152;5.392;2024-02-21T15:47:19;7.20;;;4.88;;
14080;SDS011;7116;52.152;5.392;2024-02-21T15:50:11;9.93;;;5.97;;
14080;SDS011;7116;52.152;5.392;2024-02-21T15:55:52;7.35;;;4.78;;
14080;SDS011;7116;52.152;5.392;2024-02-21T16:04:26;14.93;;;5.53;;
14080;SDS011;7116;52.152;5.392;2024-02-21T16:06:53;9.05;;;5.70;;
14080;SDS011;7116;52.152;5.392;2024-02-21T16:09:19;10.97;;;5.70;;
14080;SDS011;7116;52.152;5.392;2024-02-21T16:11:44;10.33;;;5.50;;
14080;SDS011;7116;52.152;5.392;2024-02-21T16:14:17;8.90;;;5.78;;
14080;SDS011;7116;52.152;5.392;2024-02-21T16:16:43;10.32;;;4.93;;
14080;SDS011;7116;52.152;5.392;2024-02-21T16:19:09;7.30;;;4.88;;
14080;SDS011;7116;52.152;5.392;2024-02-21T16:21:38;11.27;;;5.53;;
14080;SDS011;7116;52.152;5.392;2024-02-21T16:24:10;10.70;;;4.90;;
14080;SDS011;7116;52.152;5.392;2024-02-21T16:26:39;8.98;;;5.25;;
14080;SDS011;7116;52.152;5.392;2024-02-21T16:29:08;6.25;;;4.55;;
14080;SDS011;7116;52.152;5.392;2024-02-21T16:31:33;11.27;;;4.97;;